Time,TemperatureF,DewpointF,PressureIn,WindDirection,WindDirectionDegrees,WindSpeedMPH,WindSpeedGustMPH,Humidity,HourlyPrecipIn,Conditions,Clouds,dailyrainin,SoftwareType,DateUTC
2013-05-27 00:13:00,-999.0,-99.9,30.12,North,-999,-999.0,-999.0,-999,0.00,,,0.00,weatherlink.com 1.10,2013-05-27 04:13:00,
2013-05-27 00:30:00,-999.0,-99.9,30.12,North,-999,-999.0,-999.0,-999,0.00,,,0.00,weatherlink.com 1.10,2013-05-27 04:30:00,
2013-05-27 00:48:00,-999.0,-99.9,30.12,North,-999,-999.0,-999.0,-999,0.00,,,0.00,weatherlink.com 1.10,2013-05-27 04:48:00,
2013-05-27 01:05:00,-999.0,-99.9,30.12,North,-999,-999.0,-999.0,-999,0.00,,,0.00,weatherlink.com 1.10,2013-05-27 05:05:00,
2013-05-27 01:22:00,-999.0,-99.9,30.12,North,-999,-999.0,-999.0,-999,0.00,,,0.00,weatherlink.com 1.10,2013-05-27 05:22:00,
2013-05-27 01:39:00,-999.0,-99.9,30.12,North,-999,-999.0,-999.0,-999,0.00,,,0.00,weatherlink.com 1.10,2013-05-27 05:39:00,
2013-05-27 01:59:00,-999.0,-99.9,30.11,North,-999,-999.0,-999.0,-999,0.00,,,0.00,weatherlink.com 1.10,2013-05-27 05:59:00,
2013-05-27 02:14:00,-999.0,-99.9,30.12,North,-999,-999.0,-999.0,-999,0.00,,,0.00,weatherlink.com 1.10,2013-05-27 06:14:00,
2013-05-27 02:31:00,-999.0,-99.9,30.11,North,-999,-999.0,-999.0,-999,0.00,,,0.00,weatherlink.com 1.10,2013-05-27 06:31:00,
2013-05-27 02:48:00,-999.0,-99.9,30.11,North,-999,-999.0,-999.0,-999,0.00,,,0.00,weatherlink.com 1.10,2013-05-27 06:48:00,
2013-05-27 03:05:00,-999.0,-99.9,30.11,North,-999,-999.0,-999.0,-999,0.00,,,0.00,weatherlink.com 1.10,2013-05-27 07:05:00,
2013-05-27 03:23:00,-999.0,-99.9,30.11,North,-999,-999.0,-999.0,-999,0.00,,,0.00,weatherlink.com 1.10,2013-05-27 07:23:00,
2013-05-27 03:41:00,-999.0,-99.9,30.11,North,-999,-999.0,-999.0,-999,0.00,,,0.00,weatherlink.com 1.10,2013-05-27 07:41:00,
2013-05-27 03:58:00,-999.0,-99.9,30.11,North,-999,-999.0,-999.0,-999,0.00,,,0.00,weatherlink.com 1.10,2013-05-27 07:58:00,
2013-05-27 04:15:00,-999.0,-99.9,30.11,North,-999,-999.0,-999.0,-999,0.00,,,0.00,weatherlink.com 1.10,2013-05-27 08:15:00,
2013-05-27 04:32:00,-999.0,-99.9,30.11,North,-999,-999.0,-999.0,-999,0.00,,,0.00,weatherlink.com 1.10,2013-05-27 08:32:00,
2013-05-27 04:49:00,-999.0,-99.9,30.11,North,-999,-999.0,-999.0,-999,0.00,,,0.00,weatherlink.com 1.10,2013-05-27 08:49:00,
2013-05-27 05:06:00,-999.0,-99.9,30.12,North,-999,-999.0,-999.0,-999,0.00,,,0.00,weatherlink.com 1.10,2013-05-27 09:06:00,
2013-05-27 05:23:00,-999.0,-99.9,30.12,North,-999,-999.0,-999.0,-999,0.00,,,0.00,weatherlink.com 1.10,2013-05-27 09:23:00,
2013-05-27 05:41:00,-999.0,-99.9,30.12,North,-999,-999.0,-999.0,-999,0.00,,,0.00,weatherlink.com 1.10,2013-05-27 09:41:00,
2013-05-27 05:59:00,-999.0,-99.9,30.12,North,-999,-999.0,-999.0,-999,0.00,,,0.00,weatherlink.com 1.10,2013-05-27 09:59:00,
2013-05-27 06:16:00,-999.0,-99.9,30.13,North,-999,-999.0,-999.0,-999,0.00,,,0.00,weatherlink.com 1.10,2013-05-27 10:16:00,
2013-05-27 06:33:00,-999.0,-99.9,30.13,North,-999,-999.0,-999.0,-999,0.00,,,0.00,weatherlink.com 1.10,2013-05-27 10:33:00,
2013-05-27 06:51:00,-999.0,-99.9,30.14,North,-999,-999.0,-999.0,-999,0.00,,,0.00,weatherlink.com 1.10,2013-05-27 10:51:00,
2013-05-27 07:07:00,-999.0,-99.9,30.14,North,-999,-999.0,-999.0,-999,0.00,,,0.00,weatherlink.com 1.10,2013-05-27 11:07:00,
2013-05-27 07:25:00,-999.0,-99.9,30.14,North,-999,-999.0,-999.0,-999,0.00,,,0.00,weatherlink.com 1.10,2013-05-27 11:25:00,
2013-05-27 07:42:00,-999.0,-99.9,30.14,North,-999,-999.0,-999.0,-999,0.00,,,0.00,weatherlink.com 1.10,2013-05-27 11:42:00,
2013-05-27 08:00:00,-999.0,-99.9,30.15,North,-999,-999.0,-999.0,-999,0.00,,,0.00,weatherlink.com 1.10,2013-05-27 12:00:00,
2013-05-27 08:16:00,-999.0,-99.9,30.15,North,-999,-999.0,-999.0,-999,0.00,,,0.00,weatherlink.com 1.10,2013-05-27 12:16:00,
2013-05-27 08:34:00,-999.0,-99.9,30.16,North,-999,-999.0,-999.0,-999,0.00,,,0.00,weatherlink.com 1.10,2013-05-27 12:34:00,
2013-05-27 08:51:00,-999.0,-99.9,30.16,North,-999,-999.0,-999.0,-999,0.00,,,0.00,weatherlink.com 1.10,2013-05-27 12:51:00,
2013-05-27 09:09:00,-999.0,-99.9,30.16,North,-999,-999.0,-999.0,-999,0.00,,,0.00,weatherlink.com 1.10,2013-05-27 13:09:00,
2013-05-27 09:26:00,-999.0,-99.9,30.16,North,-999,-999.0,-999.0,-999,0.00,,,0.00,weatherlink.com 1.10,2013-05-27 13:26:00,
2013-05-27 09:44:00,-999.0,-99.9,30.16,North,-999,-999.0,-999.0,-999,0.00,,,0.00,weatherlink.com 1.10,2013-05-27 13:44:00,
2013-05-27 10:00:00,-999.0,-99.9,30.16,North,-999,-999.0,-999.0,-999,0.00,,,0.00,weatherlink.com 1.10,2013-05-27 14:00:00,
2013-05-27 10:18:00,56.9,38.0,30.15,North,5,9.0,15.0,49,0.00,,,0.00,weatherlink.com 1.10,2013-05-27 14:18:00,
2013-05-27 10:36:00,57.5,38.0,30.15,North,5,6.0,17.0,49,0.00,,,0.00,weatherlink.com 1.10,2013-05-27 14:36:00,
2013-05-27 10:53:00,-999.0,-99.9,30.15,North,-999,-999.0,-999.0,-999,0.00,,,0.00,weatherlink.com 1.10,2013-05-27 14:53:00,
2013-05-27 11:11:00,-999.0,-99.9,30.15,North,-999,-999.0,-999.0,-999,0.00,,,0.00,weatherlink.com 1.10,2013-05-27 15:11:00,
2013-05-27 11:28:00,-999.0,-99.9,30.15,North,-999,-999.0,-999.0,-999,0.00,,,0.00,weatherlink.com 1.10,2013-05-27 15:28:00,
2013-05-27 11:44:00,-999.0,-99.9,30.14,North,-999,-999.0,-999.0,-999,0.00,,,0.00,weatherlink.com 1.10,2013-05-27 15:44:00,
2013-05-27 12:02:00,59.4,35.0,30.14,North,5,15.0,27.0,40,0.00,,,0.00,weatherlink.com 1.10,2013-05-27 16:02:00,
2013-05-27 12:19:00,59.9,35.0,30.13,North,5,13.0,23.0,39,0.00,,,0.00,weatherlink.com 1.10,2013-05-27 16:19:00,
2013-05-27 12:37:00,-999.0,-99.9,30.12,North,-999,-999.0,-999.0,-999,0.00,,,0.00,weatherlink.com 1.10,2013-05-27 16:37:00,
2013-05-27 12:54:00,-999.0,-99.9,30.12,North,-999,-999.0,-999.0,-999,0.00,,,0.00,weatherlink.com 1.10,2013-05-27 16:54:00,
2013-05-27 13:12:00,61.1,34.0,30.11,North,5,7.0,27.0,37,0.00,,,0.00,weatherlink.com 1.10,2013-05-27 17:12:00,
2013-05-27 13:31:00,61.8,34.0,30.11,North,5,11.0,20.0,36,0.00,,,0.00,weatherlink.com 1.10,2013-05-27 17:31:00,
2013-05-27 13:46:00,61.8,34.0,30.11,North,5,19.0,26.0,35,0.00,,,0.00,weatherlink.com 1.10,2013-05-27 17:46:00,
2013-05-27 14:03:00,62.5,36.0,30.10,North,5,20.0,24.0,37,0.00,,,0.00,weatherlink.com 1.10,2013-05-27 18:03:00,
2013-05-27 14:21:00,62.7,34.0,30.10,North,5,16.0,22.0,34,0.00,,,0.00,weatherlink.com 1.10,2013-05-27 18:21:00,
2013-05-27 14:38:00,63.4,34.0,30.10,North,5,15.0,19.0,34,0.00,,,0.00,weatherlink.com 1.10,2013-05-27 18:38:00,
2013-05-27 14:55:00,63.2,33.0,30.09,North,5,18.0,21.0,33,0.00,,,0.00,weatherlink.com 1.10,2013-05-27 18:55:00,
2013-05-27 15:13:00,-999.0,-99.9,30.09,North,-999,-999.0,-999.0,-999,0.00,,,0.00,weatherlink.com 1.10,2013-05-27 19:13:00,
2013-05-27 15:30:00,-999.0,-99.9,30.09,North,-999,-999.0,-999.0,-999,0.00,,,0.00,weatherlink.com 1.10,2013-05-27 19:30:00,
2013-05-27 15:47:00,-999.0,-99.9,30.09,North,-999,-999.0,-999.0,-999,0.00,,,0.00,weatherlink.com 1.10,2013-05-27 19:47:00,
2013-05-27 16:04:00,-999.0,-99.9,30.09,North,-999,-999.0,-999.0,-999,0.00,,,0.00,weatherlink.com 1.10,2013-05-27 20:04:00,
2013-05-27 16:22:00,-999.0,-99.9,30.09,North,-999,-999.0,-999.0,-999,0.00,,,0.00,weatherlink.com 1.10,2013-05-27 20:22:00,
2013-05-27 16:38:00,-999.0,-99.9,30.08,North,-999,-999.0,-999.0,-999,0.00,,,0.00,weatherlink.com 1.10,2013-05-27 20:38:00,
2013-05-27 16:56:00,-999.0,-99.9,30.08,North,-999,-999.0,-999.0,-999,0.00,,,0.00,weatherlink.com 1.10,2013-05-27 20:56:00,
2013-05-27 17:13:00,-999.0,-99.9,30.07,North,-999,-999.0,-999.0,-999,0.00,,,0.00,weatherlink.com 1.10,2013-05-27 21:13:00,
2013-05-27 17:31:00,-999.0,-99.9,30.08,North,-999,-999.0,-999.0,-999,0.00,,,0.00,weatherlink.com 1.10,2013-05-27 21:31:00,
2013-05-27 17:49:00,-999.0,-99.9,30.07,North,-999,-999.0,-999.0,-999,0.00,,,0.00,weatherlink.com 1.10,2013-05-27 21:49:00,
2013-05-27 18:06:00,-999.0,-99.9,30.08,North,-999,-999.0,-999.0,-999,0.00,,,0.00,weatherlink.com 1.10,2013-05-27 22:06:00,
2013-05-27 18:23:00,-999.0,-99.9,30.08,North,-999,-999.0,-999.0,-999,0.00,,,0.00,weatherlink.com 1.10,2013-05-27 22:23:00,
2013-05-27 18:40:00,-999.0,-99.9,30.08,North,-999,-999.0,-999.0,-999,0.00,,,0.00,weatherlink.com 1.10,2013-05-27 22:40:00,
2013-05-27 18:58:00,-999.0,-99.9,30.09,North,-999,-999.0,-999.0,-999,0.00,,,0.00,weatherlink.com 1.10,2013-05-27 22:58:00,
2013-05-27 19:15:00,-999.0,-99.9,30.09,North,-999,-999.0,-999.0,-999,0.00,,,0.00,weatherlink.com 1.10,2013-05-27 23:15:00,
2013-05-27 19:33:00,-999.0,-99.9,30.10,North,-999,-999.0,-999.0,-999,0.00,,,0.00,weatherlink.com 1.10,2013-05-27 23:33:00,
2013-05-27 19:50:00,-999.0,-99.9,30.10,North,-999,-999.0,-999.0,-999,0.00,,,0.00,weatherlink.com 1.10,2013-05-27 23:50:00,
2013-05-27 20:07:00,-999.0,-99.9,30.10,North,-999,-999.0,-999.0,-999,0.00,,,0.00,weatherlink.com 1.10,2013-05-28 00:07:00,
2013-05-27 20:24:00,-999.0,-99.9,30.11,North,-999,-999.0,-999.0,-999,0.00,,,0.00,weatherlink.com 1.10,2013-05-28 00:24:00,
2013-05-27 20:42:00,-999.0,-99.9,30.11,North,-999,-999.0,-999.0,-999,0.00,,,0.00,weatherlink.com 1.10,2013-05-28 00:42:00,
2013-05-27 20:59:00,-999.0,-99.9,30.12,North,-999,-999.0,-999.0,-999,0.00,,,0.00,weatherlink.com 1.10,2013-05-28 00:59:00,
2013-05-27 21:16:00,-999.0,-99.9,30.12,North,-999,-999.0,-999.0,-999,0.00,,,0.00,weatherlink.com 1.10,2013-05-28 01:16:00,
2013-05-27 21:33:00,-999.0,-99.9,30.12,North,-999,-999.0,-999.0,-999,0.00,,,0.00,weatherlink.com 1.10,2013-05-28 01:33:00,
2013-05-27 21:51:00,-999.0,-99.9,30.13,North,-999,-999.0,-999.0,-999,0.00,,,0.00,weatherlink.com 1.10,2013-05-28 01:51:00,
2013-05-27 22:09:00,-999.0,-99.9,30.13,North,-999,-999.0,-999.0,-999,0.00,,,0.00,weatherlink.com 1.10,2013-05-28 02:09:00,
2013-05-27 22:26:00,-999.0,-99.9,30.14,North,-999,-999.0,-999.0,-999,0.00,,,0.00,weatherlink.com 1.10,2013-05-28 02:26:00,
2013-05-27 22:42:00,-999.0,-99.9,30.14,North,-999,-999.0,-999.0,-999,0.00,,,0.00,weatherlink.com 1.10,2013-05-28 02:42:00,
2013-05-27 23:00:00,-999.0,-99.9,30.15,North,-999,-999.0,-999.0,-999,0.00,,,0.00,weatherlink.com 1.10,2013-05-28 03:00:00,
2013-05-27 23:20:00,-999.0,-99.9,30.15,North,-999,-999.0,-999.0,-999,0.00,,,0.00,weatherlink.com 1.10,2013-05-28 03:20:00,
2013-05-27 23:35:00,-999.0,-99.9,30.15,North,-999,-999.0,-999.0,-999,0.00,,,0.00,weatherlink.com 1.10,2013-05-28 03:35:00,
2013-05-27 23:53:00,-999.0,-99.9,30.16,North,-999,-999.0,-999.0,-999,0.00,,,0.00,weatherlink.com 1.10,2013-05-28 03:53:00,